Terminal Aerodrome Forecast
Issued by NWS Columbia, SC

Home | Current Version | Previous Version | Text Only | Print | Product List | Glossary On
Versions: 1 2 3 4 5 6 7 8 9 10 11 12 13 14 15 16 17 18 19 20 21 22 23 24 25 26 27 28 29 30 31 32 33 34 35 36 37 38 39 40 41 42 43 44 45 46 47 48 49 50
000
FTUS42 KCAE 220904 AAA
TAFAGS
TAF AMD
KAGS 220904Z 2209/2306 15007KT P6SM OVC015 WS010/18025KT
     FM221100 17004KT 2SM BR OVC009 WS010/19025KT
     FM221400 19007KT P6SM BKN015
     FM221600 20009KT P6SM BKN025
     FM221800 19010KT P6SM SCT035=

USA.gov is the U.S. government's official web portal to all federal, state and local government web resources and services.